sensor_id;sensor_type;location;lat;lon;timestamp;pressure;altitude;pressure_sealevel;temperature;humidity
5996;BME280;3026;53.612;7.278;2023-08-01T00:00:26;99525.81;;;17.55;100.00
5996;BME280;3026;53.612;7.278;2023-08-01T00:02:54;99519.47;;;17.55;100.00
5996;BME280;3026;53.612;7.278;2023-08-01T00:05:21;99529.16;;;17.57;100.00
5996;BME280;3026;53.612;7.278;2023-08-01T00:07:48;99520.03;;;17.57;100.00
5996;BME280;3026;53.612;7.278;2023-08-01T00:10:18;99504.59;;;17.56;100.00
5996;BME280;3026;53.612;7.278;2023-08-01T00:12:48;99506.28;;;17.57;100.00
5996;BME280;3026;53.612;7.278;2023-08-01T00:15:19;99505.94;;;17.53;100.00
5996;BME280;3026;53.612;7.278;2023-08-01T00:17:48;99498.25;;;17.55;100.00
5996;BME280;3026;53.612;7.278;2023-08-01T00:20:23;99498.59;;;17.59;100.00
5996;BME280;3026;53.612;7.278;2023-08-01T00:22:54;99486.41;;;17.55;100.00
5996;BME280;3026;53.612;7.278;2023-08-01T00:25:21;99487.22;;;17.55;100.00
5996;BME280;3026;53.612;7.278;2023-08-01T00:27:52;99478.72;;;17.57;100.00
5996;BME280;3026;53.612;7.278;2023-08-01T00:30:22;99479.53;;;17.57;100.00
5996;BME280;3026;53.612;7.278;2023-08-01T00:32:54;99485.41;;;17.61;100.00
5996;BME280;3026;53.612;7.278;2023-08-01T00:35:21;99476.31;;;17.60;100.00
5996;BME280;3026;53.612;7.278;2023-08-01T00:37:56;99471.03;;;17.59;100.00
5996;BME280;3026;53.612;7.278;2023-08-01T00:40:32;99465.50;;;17.59;100.00
5996;BME280;3026;53.612;7.278;2023-08-01T00:43:04;99474.38;;;17.61;100.00
5996;BME280;3026;53.612;7.278;2023-08-01T00:45:31;99471.13;;;17.64;100.00
5996;BME280;3026;53.612;7.278;2023-08-01T00:47:58;99448.97;;;17.59;100.00
5996;BME280;3026;53.612;7.278;2023-08-01T00:50:29;99462.84;;;17.64;100.00
5996;BME280;3026;53.612;7.278;2023-08-01T00:52:58;99449.59;;;17.61;100.00
5996;BME280;3026;53.612;7.278;2023-08-01T00:55:31;99454.84;;;17.62;100.00
5996;BME280;3026;53.612;7.278;2023-08-01T00:58:01;99449.06;;;17.64;100.00
5996;BME280;3026;53.612;7.278;2023-08-01T01:00:28;99445.72;;;17.62;100.00
5996;BME280;3026;53.612;7.278;2023-08-01T01:03:05;99448.50;;;17.62;100.00
5996;BME280;3026;53.612;7.278;2023-08-01T01:05:36;99445.16;;;17.60;100.00
5996;BME280;3026;53.612;7.278;2023-08-01T01:08:37;99442.97;;;17.62;100.00
5996;BME280;3026;53.612;7.278;2023-08-01T01:11:37;99437.47;;;17.62;100.00
5996;BME280;3026;53.612;7.278;2023-08-01T01:14:23;99432.78;;;17.62;100.00
5996;BME280;3026;53.612;7.278;2023-08-01T01:17:03;99419.75;;;17.58;100.00
5996;BME280;3026;53.612;7.278;2023-08-01T01:19:56;99426.34;;;17.57;100.00
5996;BME280;3026;53.612;7.278;2023-08-01T01:22:34;99424.94;;;17.54;100.00
5996;BME280;3026;53.612;7.278;2023-08-01T01:28:11;99412.41;;;17.46;100.00
5996;BME280;3026;53.612;7.278;2023-08-01T01:31:01;99418.44;;;17.43;100.00
5996;BME280;3026;53.612;7.278;2023-08-01T01:33:53;99412.25;;;17.36;100.00
5996;BME280;3026;53.612;7.278;2023-08-01T01:36:35;99414.94;;;17.31;100.00
5996;BME280;3026;53.612;7.278;2023-08-01T01:39:16;99413.28;;;17.30;100.00
5996;BME280;3026;53.612;7.278;2023-08-01T01:41:57;99409.59;;;17.25;100.00
5996;BME280;3026;53.612;7.278;2023-08-01T01:44:28;99414.25;;;17.24;100.00
5996;BME280;3026;53.612;7.278;2023-08-01T01:46:56;99414.25;;;17.24;100.00
5996;BME280;3026;53.612;7.278;2023-08-01T01:49:32;99419.28;;;17.27;100.00
5996;BME280;3026;53.612;7.278;2023-08-01T01:51:59;99419.28;;;17.27;100.00
5996;BME280;3026;53.612;7.278;2023-08-01T01:54:31;99413.78;;;17.27;100.00
5996;BME280;3026;53.612;7.278;2023-08-01T01:56:58;99418.22;;;17.28;100.00
5996;BME280;3026;53.612;7.278;2023-08-01T01:59:27;99417.94;;;17.30;100.00
5996;BME280;3026;53.612;7.278;2023-08-01T02:01:54;99409.94;;;17.28;100.00
5996;BME280;3026;53.612;7.278;2023-08-01T02:04:21;99404.06;;;17.25;100.00
5996;BME280;3026;53.612;7.278;2023-08-01T02:06:49;99407.09;;;17.23;100.00
5996;BME280;3026;53.612;7.278;2023-08-01T02:09:18;99401.56;;;17.23;100.00
5996;BME280;3026;53.612;7.278;2023-08-01T02:11:48;99397.66;;;17.19;100.00
5996;BME280;3026;53.612;7.278;2023-08-01T02:14:17;99397.09;;;17.17;100.00
5996;BME280;3026;53.612;7.278;2023-08-01T02:16:46;99388.72;;;17.12;100.00
5996;BME280;3026;53.612;7.278;2023-08-01T02:19:17;99382.38;;;17.11;100.00
5996;BME280;3026;53.612;7.278;2023-08-01T02:21:46;99372.38;;;17.05;100.00
5996;BME280;3026;53.612;7.278;2023-08-01T02:24:16;99380.91;;;17.04;100.00
5996;BME280;3026;53.612;7.278;2023-08-01T02:26:45;99367.38;;;17.02;100.00
5996;BME280;3026;53.612;7.278;2023-08-01T02:29:18;99383.66;;;17.04;100.00
5996;BME280;3026;53.612;7.278;2023-08-01T02:31:47;99362.03;;;16.96;100.00
5996;BME280;3026;53.612;7.278;2023-08-01T02:34:15;99360.38;;;16.95;100.00
5996;BME280;3026;53.612;7.278;2023-08-01T02:36:49;99367.53;;;16.96;100.00
5996;BME280;3026;53.612;7.278;2023-08-01T02:39:21;99366.59;;;16.90;100.00
5996;BME280;3026;53.612;7.278;2023-08-01T02:50:33;99351.38;;;16.82;100.00
5996;BME280;3026;53.612;7.278;2023-08-01T02:53:04;99352.69;;;16.80;100.00
5996;BME280;3026;53.612;7.278;2023-08-01T02:55:34;99356.88;;;16.82;100.00
5996;BME280;3026;53.612;7.278;2023-08-01T02:58:01;99345.84;;;16.82;100.00
5996;BME280;3026;53.612;7.278;2023-08-01T03:00:35;99358.53;;;16.83;100.00
5996;BME280;3026;53.612;7.278;2023-08-01T03:03:25;99355.19;;;16.81;100.00
5996;BME280;3026;53.612;7.278;2023-08-01T03:06:02;99347.53;;;16.83;100.00
5996;BME280;3026;53.612;7.278;2023-08-01T03:08:42;99352.91;;;16.78;100.00
5996;BME280;3026;53.612;7.278;2023-08-01T03:11:12;99349.34;;;16.78;100.00
5996;BME280;3026;53.612;7.278;2023-08-01T03:13:39;99360.13;;;16.79;100.00
5996;BME280;3026;53.612;7.278;2023-08-01T03:16:06;99361.19;;;16.78;100.00
5996;BME280;3026;53.612;7.278;2023-08-01T03:18:38;99357.84;;;16.76;100.00
5996;BME280;3026;53.612;7.278;2023-08-01T03:21:07;99352.84;;;16.73;100.00
5996;BME280;3026;53.612;7.278;2023-08-01T03:23:35;99350.34;;;16.72;100.00
5996;BME280;3026;53.612;7.278;2023-08-01T03:26:02;99362.69;;;16.69;100.00
5996;BME280;3026;53.612;7.278;2023-08-01T03:28:29;99359.34;;;16.67;100.00
5996;BME280;3026;53.612;7.278;2023-08-01T03:30:58;99360.53;;;16.71;100.00
5996;BME280;3026;53.612;7.278;2023-08-01T03:33:29;99356.81;;;16.66;100.00
5996;BME280;3026;53.612;7.278;2023-08-01T03:35:57;99366.97;;;16.65;100.00
5996;BME280;3026;53.612;7.278;2023-08-01T03:38:31;99363.13;;;16.66;100.00
5996;BME280;3026;53.612;7.278;2023-08-01T03:40:59;99362.31;;;16.66;100.00
5996;BME280;3026;53.612;7.278;2023-08-01T03:43:29;99368.06;;;16.64;100.00
5996;BME280;3026;53.612;7.278;2023-08-01T03:45:56;99362.56;;;16.64;100.00
5996;BME280;3026;53.612;7.278;2023-08-01T03:48:24;99354.81;;;16.61;100.00
5996;BME280;3026;53.612;7.278;2023-08-01T03:50:51;99358.13;;;16.63;100.00
5996;BME280;3026;53.612;7.278;2023-08-01T03:53:18;99343.22;;;16.59;100.00
5996;BME280;3026;53.612;7.278;2023-08-01T03:55:47;99336.63;;;16.60;100.00
5996;BME280;3026;53.612;7.278;2023-08-01T03:58:15;99337.13;;;16.57;100.00
5996;BME280;3026;53.612;7.278;2023-08-01T04:00:42;99338.81;;;16.58;100.00
5996;BME280;3026;53.612;7.278;2023-08-01T04:03:09;99343.81;;;16.61;100.00
5996;BME280;3026;53.612;7.278;2023-08-01T04:05:36;99333.31;;;16.58;100.00
5996;BME280;3026;53.612;7.278;2023-08-01T04:08:03;99334.38;;;16.57;100.00
5996;BME280;3026;53.612;7.278;2023-08-01T04:10:31;99340.97;;;16.56;100.00
5996;BME280;3026;53.612;7.278;2023-08-01T04:12:59;99341.56;;;16.58;100.00
5996;BME280;3026;53.612;7.278;2023-08-01T04:15:26;99343.94;;;16.54;100.00
5996;BME280;3026;53.612;7.278;2023-08-01T04:17:53;99344.19;;;16.53;100.00
5996;BME280;3026;53.612;7.278;2023-08-01T04:20:23;99338.69;;;16.53;100.00
5996;BME280;3026;53.612;7.278;2023-08-01T04:22:51;99347.78;;;16.53;100.00
5996;BME280;3026;53.612;7.278;2023-08-01T04:25:21;99350.28;;;16.55;100.00
5996;BME280;3026;53.612;7.278;2023-08-01T04:27:53;99350.28;;;16.55;100.00
5996;BME280;3026;53.612;7.278;2023-08-01T04:30:22;99350.28;;;16.55;100.00
5996;BME280;3026;53.612;7.278;2023-08-01T04:32:53;99351.97;;;16.56;100.00
5996;BME280;3026;53.612;7.278;2023-08-01T04:35:22;99357.47;;;16.56;100.00
5996;BME280;3026;53.612;7.278;2023-08-01T04:37:50;99354.94;;;16.54;100.00
5996;BME280;3026;53.612;7.278;2023-08-01T04:40:31;99352.81;;;16.56;100.00
5996;BME280;3026;53.612;7.278;2023-08-01T04:43:03;99345.28;;;16.52;100.00
5996;BME280;3026;53.612;7.278;2023-08-01T04:45:31;99348.63;;;16.54;100.00
5996;BME280;3026;53.612;7.278;2023-08-01T04:48:01;99345.78;;;16.49;100.00
5996;BME280;3026;53.612;7.278;2023-08-01T04:50:34;99348.03;;;16.52;100.00
5996;BME280;3026;53.612;7.278;2023-08-01T04:53:01;99339.19;;;16.50;100.00
5996;BME280;3026;53.612;7.278;2023-08-01T04:55:31;99346.63;;;16.49;100.00
5996;BME280;3026;53.612;7.278;2023-08-01T04:57:59;99345.78;;;16.49;100.00
5996;BME280;3026;53.612;7.278;2023-08-01T05:00:26;99351.88;;;16.51;100.00
5996;BME280;3026;53.612;7.278;2023-08-01T05:02:55;99345.28;;;16.52;100.00
5996;BME280;3026;53.612;7.278;2023-08-01T05:05:23;99342.78;;;16.50;100.00
5996;BME280;3026;53.612;7.278;2023-08-01T05:07:52;99352.44;;;16.53;100.00
5996;BME280;3026;53.612;7.278;2023-08-01T05:10:23;99352.13;;;16.49;100.00
5996;BME280;3026;53.612;7.278;2023-08-01T05:12:54;99360.44;;;16.54;100.00
5996;BME280;3026;53.612;7.278;2023-08-01T05:15:21;99349.13;;;16.51;100.00
5996;BME280;3026;53.612;7.278;2023-08-01T05:17:48;99357.94;;;16.53;100.00
5996;BME280;3026;53.612;7.278;2023-08-01T05:20:27;99353.28;;;16.53;100.00
5996;BME280;3026;53.612;7.278;2023-08-01T05:23:06;99354.63;;;16.51;100.00
5996;BME280;3026;53.612;7.278;2023-08-01T05:25:55;99362.28;;;16.49;100.00
5996;BME280;3026;53.612;7.278;2023-08-01T05:28:24;99366.13;;;16.48;100.00
5996;BME280;3026;53.612;7.278;2023-08-01T05:30:52;99356.22;;;16.47;100.00
5996;BME280;3026;53.612;7.278;2023-08-01T05:33:23;99356.09;;;16.42;100.00
5996;BME280;3026;53.612;7.278;2023-08-01T05:35:55;99358.25;;;16.40;100.00
5996;BME280;3026;53.612;7.278;2023-08-01T05:38:22;99356.09;;;16.42;100.00
5996;BME280;3026;53.612;7.278;2023-08-01T05:40:49;99349.19;;;16.39;100.00
5996;BME280;3026;53.612;7.278;2023-08-01T05:43:21;99337.34;;;16.39;100.00
5996;BME280;3026;53.612;7.278;2023-08-01T05:45:48;99356.09;;;16.42;100.00
5996;BME280;3026;53.612;7.278;2023-08-01T05:48:16;99362.19;;;16.44;100.00
5996;BME280;3026;53.612;7.278;2023-08-01T05:50:44;99364.94;;;16.44;100.00
5996;BME280;3026;53.612;7.278;2023-08-01T05:53:12;99367.22;;;16.47;100.00
5996;BME280;3026;53.612;7.278;2023-08-01T05:55:43;99362.28;;;16.49;100.00
5996;BME280;3026;53.612;7.278;2023-08-01T05:58:12;99369.47;;;16.50;100.00
5996;BME280;3026;53.612;7.278;2023-08-01T06:00:51;99362.28;;;16.49;100.00
5996;BME280;3026;53.612;7.278;2023-08-01T06:03:22;99359.03;;;16.52;100.00
5996;BME280;3026;53.612;7.278;2023-08-01T06:05:52;99358.06;;;16.58;100.00
5996;BME280;3026;53.612;7.278;2023-08-01T06:08:21;99367.47;;;16.62;100.00
5996;BME280;3026;53.612;7.278;2023-08-01T06:10:48;99361.63;;;16.70;100.00
5996;BME280;3026;53.612;7.278;2023-08-01T06:13:16;99363.94;;;16.78;100.00
5996;BME280;3026;53.612;7.278;2023-08-01T06:15:46;99362.19;;;16.89;100.00
5996;BME280;3026;53.612;7.278;2023-08-01T06:18:23;99355.84;;;16.88;100.00
5996;BME280;3026;53.612;7.278;2023-08-01T06:21:11;99367.38;;;16.85;100.00
5996;BME280;3026;53.612;7.278;2023-08-01T06:23:41;99369.28;;;16.85;100.00
5996;BME280;3026;53.612;7.278;2023-08-01T06:26:13;99375.56;;;16.80;100.00
5996;BME280;3026;53.612;7.278;2023-08-01T06:28:51;99371.34;;;16.78;100.00
5996;BME280;3026;53.612;7.278;2023-08-01T06:31:18;99374.94;;;16.78;100.00
5996;BME280;3026;53.612;7.278;2023-08-01T06:33:48;99379.88;;;16.76;100.00
5996;BME280;3026;53.612;7.278;2023-08-01T06:36:17;99383.19;;;16.78;100.00
5996;BME280;3026;53.612;7.278;2023-08-01T06:38:45;99375.19;;;16.77;100.00
5996;BME280;3026;53.612;7.278;2023-08-01T06:41:12;99379.88;;;16.76;100.00
5996;BME280;3026;53.612;7.278;2023-08-01T06:43:41;99373.06;;;16.79;100.00
5996;BME280;3026;53.612;7.278;2023-08-01T06:46:08;99373.38;;;16.82;100.00
5996;BME280;3026;53.612;7.278;2023-08-01T06:48:36;99367.38;;;16.85;100.00
5996;BME280;3026;53.612;7.278;2023-08-01T06:51:03;99374.88;;;16.90;100.00
5996;BME280;3026;53.612;7.278;2023-08-01T06:53:30;99371.91;;;16.91;100.00
5996;BME280;3026;53.612;7.278;2023-08-01T06:56:11;99383.38;;;16.88;100.00
5996;BME280;3026;53.612;7.278;2023-08-01T06:58:39;99370.88;;;16.81;100.00
5996;BME280;3026;53.612;7.278;2023-08-01T07:01:09;99376.38;;;16.81;100.00
5996;BME280;3026;53.612;7.278;2023-08-01T07:03:37;99381.06;;;16.80;100.00
5996;BME280;3026;53.612;7.278;2023-08-01T07:06:04;99378.88;;;16.82;100.00
5996;BME280;3026;53.612;7.278;2023-08-01T07:08:34;99385.03;;;16.89;100.00
5996;BME280;3026;53.612;7.278;2023-08-01T07:11:04;99376.78;;;16.89;100.00
5996;BME280;3026;53.612;7.278;2023-08-01T07:13:33;99381.38;;;17.01;100.00
5996;BME280;3026;53.612;7.278;2023-08-01T07:16:02;99385.50;;;17.15;100.00
5996;BME280;3026;53.612;7.278;2023-08-01T07:18:33;99387.56;;;17.25;100.00
5996;BME280;3026;53.612;7.278;2023-08-01T07:21:04;99400.06;;;17.32;100.00
5996;BME280;3026;53.612;7.278;2023-08-01T07:23:33;99398.56;;;17.41;100.00
5996;BME280;3026;53.612;7.278;2023-08-01T07:26:00;99399.25;;;17.48;100.00
5996;BME280;3026;53.612;7.278;2023-08-01T07:28:27;99394.31;;;17.50;100.00
5996;BME280;3026;53.612;7.278;2023-08-01T07:31:03;99401.41;;;17.46;100.00
5996;BME280;3026;53.612;7.278;2023-08-01T07:33:31;99398.47;;;17.36;100.00
5996;BME280;3026;53.612;7.278;2023-08-01T07:35:58;99401.41;;;17.30;100.00
5996;BME280;3026;53.612;7.278;2023-08-01T07:38:25;99401.09;;;17.26;100.00
5996;BME280;3026;53.612;7.278;2023-08-01T07:40:54;99386.72;;;17.24;100.00
5996;BME280;3026;53.612;7.278;2023-08-01T07:43:20;99398.91;;;17.28;100.00
5996;BME280;3026;53.612;7.278;2023-08-01T07:45:48;99389.06;;;17.32;100.00
5996;BME280;3026;53.612;7.278;2023-08-01T07:48:17;99394.56;;;17.32;100.00
5996;BME280;3026;53.612;7.278;2023-08-01T07:50:44;99385.22;;;17.33;100.00
5996;BME280;3026;53.612;7.278;2023-08-01T07:53:11;99385.22;;;17.33;100.00
5996;BME280;3026;53.612;7.278;2023-08-01T07:55:38;99384.06;;;17.29;100.00
5996;BME280;3026;53.612;7.278;2023-08-01T07:58:05;99383.38;;;17.22;100.00
5996;BME280;3026;53.612;7.278;2023-08-01T08:00:34;99387.47;;;17.19;100.00
5996;BME280;3026;53.612;7.278;2023-08-01T08:03:01;99386.91;;;17.17;100.00
5996;BME280;3026;53.612;7.278;2023-08-01T08:05:29;99389.41;;;17.19;100.00
5996;BME280;3026;53.612;7.278;2023-08-01T08:07:56;99386.06;;;17.17;100.00
5996;BME280;3026;53.612;7.278;2023-08-01T08:10:23;99386.25;;;17.27;100.00
5996;BME280;3026;53.612;7.278;2023-08-01T08:12:53;99386.81;;;17.29;100.00
5996;BME280;3026;53.612;7.278;2023-08-01T08:15:24;99387.22;;;17.38;100.00
5996;BME280;3026;53.612;7.278;2023-08-01T08:17:54;99379.88;;;17.43;100.00
5996;BME280;3026;53.612;7.278;2023-08-01T08:20:24;99384.53;;;17.60;100.00
5996;BME280;3026;53.612;7.278;2023-08-01T08:22:53;99376.81;;;17.78;100.00
5996;BME280;3026;53.612;7.278;2023-08-01T08:25:22;99391.63;;;17.94;100.00
5996;BME280;3026;53.612;7.278;2023-08-01T08:27:49;99387.91;;;18.05;100.00
5996;BME280;3026;53.612;7.278;2023-08-01T08:30:16;99385.75;;;18.07;100.00
5996;BME280;3026;53.612;7.278;2023-08-01T08:32:43;99388.56;;;18.13;100.00
5996;BME280;3026;53.612;7.278;2023-08-01T08:35:14;99397.41;;;18.15;100.00
5996;BME280;3026;53.612;7.278;2023-08-01T08:37:41;99395.41;;;18.10;100.00
5996;BME280;3026;53.612;7.278;2023-08-01T08:40:12;99397.28;;;18.04;100.00
5996;BME280;3026;53.612;7.278;2023-08-01T08:42:41;99404.13;;;18.02;100.00
5996;BME280;3026;53.612;7.278;2023-08-01T08:45:11;99399.97;;;17.99;100.00
5996;BME280;3026;53.612;7.278;2023-08-01T08:47:44;99404.72;;;18.04;100.00
5996;BME280;3026;53.612;7.278;2023-08-01T08:50:18;99404.44;;;18.05;100.00
5996;BME280;3026;53.612;7.278;2023-08-01T08:52:47;99407.81;;;18.07;100.00
5996;BME280;3026;53.612;7.278;2023-08-01T08:55:16;99407.22;;;18.05;100.00
5996;BME280;3026;53.612;7.278;2023-08-01T08:57:47;99413.25;;;18.02;100.00
5996;BME280;3026;53.612;7.278;2023-08-01T09:00:17;99397.78;;;18.01;100.00
5996;BME280;3026;53.612;7.278;2023-08-01T09:02:44;99412.41;;;18.24;100.00
5996;BME280;3026;53.612;7.278;2023-08-01T09:05:13;99407.31;;;18.37;100.00
5996;BME280;3026;53.612;7.278;2023-08-01T09:07:42;99404.44;;;18.49;100.00
5996;BME280;3026;53.612;7.278;2023-08-01T09:10:11;99411.00;;;18.43;100.00
5996;BME280;3026;53.612;7.278;2023-08-01T09:12:43;99399.97;;;18.43;100.00
5996;BME280;3026;53.612;7.278;2023-08-01T09:15:10;99412.78;;;18.54;100.00
5996;BME280;3026;53.612;7.278;2023-08-01T09:17:48;99407.88;;;18.61;100.00
5996;BME280;3026;53.612;7.278;2023-08-01T09:20:14;99417.78;;;18.57;100.00
5996;BME280;3026;53.612;7.278;2023-08-01T09:22:43;99418.44;;;18.64;100.00
5996;BME280;3026;53.612;7.278;2023-08-01T09:25:10;99424.03;;;18.75;100.00
5996;BME280;3026;53.612;7.278;2023-08-01T09:27:38;99425.75;;;18.76;100.00
5996;BME280;3026;53.612;7.278;2023-08-01T09:30:12;99402.34;;;18.61;100.00
5996;BME280;3026;53.612;7.278;2023-08-01T09:32:51;99418.78;;;18.51;100.00
5996;BME280;3026;53.612;7.278;2023-08-01T09:35:18;99414.31;;;18.45;100.00
5996;BME280;3026;53.612;7.278;2023-08-01T09:37:45;99410.16;;;18.43;100.00
5996;BME280;3026;53.612;7.278;2023-08-01T09:40:14;99412.53;;;18.34;100.00
5996;BME280;3026;53.612;7.278;2023-08-01T09:42:43;99410.03;;;18.32;100.00
5996;BME280;3026;53.612;7.278;2023-08-01T09:45:13;99408.03;;;18.28;100.00
5996;BME280;3026;53.612;7.278;2023-08-01T09:47:41;99407.53;;;18.31;100.00
5996;BME280;3026;53.612;7.278;2023-08-01T09:50:09;99400.38;;;18.30;100.00
5996;BME280;3026;53.612;7.278;2023-08-01T09:52:37;99390.38;;;18.29;100.00
5996;BME280;3026;53.612;7.278;2023-08-01T09:55:04;99392.84;;;18.25;100.00
5996;BME280;3026;53.612;7.278;2023-08-01T09:57:32;99396.13;;;18.22;100.00
5996;BME280;3026;53.612;7.278;2023-08-01T10:00:01;99408.44;;;18.15;100.00
5996;BME280;3026;53.612;7.278;2023-08-01T10:02:31;99418.97;;;18.18;100.00
5996;BME280;3026;53.612;7.278;2023-08-01T10:05:02;99412.94;;;18.21;100.00
5996;BME280;3026;53.612;7.278;2023-08-01T10:07:32;99419.06;;;18.28;100.00
5996;BME280;3026;53.612;7.278;2023-08-01T10:10:01;99415.34;;;18.39;100.00
5996;BME280;3026;53.612;7.278;2023-08-01T10:12:29;99416.69;;;18.36;100.00
5996;BME280;3026;53.612;7.278;2023-08-01T10:14:57;99410.34;;;18.36;100.00
5996;BME280;3026;53.612;7.278;2023-08-01T10:17:25;99414.97;;;18.52;100.00
5996;BME280;3026;53.612;7.278;2023-08-01T10:19:55;99414.44;;;18.55;100.00
5996;BME280;3026;53.612;7.278;2023-08-01T10:22:23;99419.44;;;18.58;100.00
5996;BME280;3026;53.612;7.278;2023-08-01T10:24:54;99429.94;;;18.61;100.00
5996;BME280;3026;53.612;7.278;2023-08-01T10:27:21;99426.63;;;18.59;100.00
5996;BME280;3026;53.612;7.278;2023-08-01T10:29:58;99427.84;;;18.69;100.00
5996;BME280;3026;53.612;7.278;2023-08-01T10:32:33;99438.03;;;18.90;100.00
5996;BME280;3026;53.612;7.278;2023-08-01T10:35:02;99445.31;;;19.01;100.00
5996;BME280;3026;53.612;7.278;2023-08-01T10:37:39;99442.06;;;19.09;100.00
5996;BME280;3026;53.612;7.278;2023-08-01T10:40:07;99437.44;;;19.15;100.00
5996;BME280;3026;53.612;7.278;2023-08-01T10:42:38;99444.31;;;19.12;100.00
5996;BME280;3026;53.612;7.278;2023-08-01T10:45:18;99444.25;;;19.07;100.00
5996;BME280;3026;53.612;7.278;2023-08-01T10:47:50;99454.81;;;19.10;100.00
5996;BME280;3026;53.612;7.278;2023-08-01T10:50:18;99442.38;;;19.13;100.00
5996;BME280;3026;53.612;7.278;2023-08-01T10:52:49;99446.75;;;19.09;100.00
5996;BME280;3026;53.612;7.278;2023-08-01T10:55:17;99462.03;;;19.16;100.00
5996;BME280;3026;53.612;7.278;2023-08-01T10:57:47;99456.31;;;19.28;100.00
5996;BME280;3026;53.612;7.278;2023-08-01T11:00:16;99455.66;;;19.48;100.00
5996;BME280;3026;53.612;7.278;2023-08-01T11:02:49;99461.59;;;19.62;100.00
5996;BME280;3026;53.612;7.278;2023-08-01T11:05:18;99459.09;;;19.60;100.00
5996;BME280;3026;53.612;7.278;2023-08-01T11:07:56;99452.94;;;19.53;100.00
5996;BME280;3026;53.612;7.278;2023-08-01T11:10:25;99449.91;;;19.54;100.00
5996;BME280;3026;53.612;7.278;2023-08-01T11:12:52;99462.31;;;19.52;100.00
5996;BME280;3026;53.612;7.278;2023-08-01T11:15:23;99460.13;;;19.54;100.00
5996;BME280;3026;53.612;7.278;2023-08-01T11:17:54;99455.66;;;19.48;100.00
5996;BME280;3026;53.612;7.278;2023-08-01T11:20:24;99470.06;;;19.50;100.00
5996;BME280;3026;53.612;7.278;2023-08-01T11:22:56;99455.34;;;19.44;100.00
5996;BME280;3026;53.612;7.278;2023-08-01T11:25:33;99478.31;;;19.45;100.00
5996;BME280;3026;53.612;7.278;2023-08-01T11:28:05;99470.50;;;19.37;100.00
5996;BME280;3026;53.612;7.278;2023-08-01T11:30:33;99500.34;;;19.35;100.00
5996;BME280;3026;53.612;7.278;2023-08-01T11:33:12;99490.31;;;19.29;100.00
5996;BME280;3026;53.612;7.278;2023-08-01T11:35:43;99485.88;;;19.28;100.00
5996;BME280;3026;53.612;7.278;2023-08-01T11:38:10;99484.16;;;19.21;100.00
5996;BME280;3026;53.612;7.278;2023-08-01T11:40:38;99483.00;;;19.12;100.00
5996;BME280;3026;53.612;7.278;2023-08-01T11:43:08;99497.28;;;19.04;100.00
5996;BME280;3026;53.612;7.278;2023-08-01T11:45:36;99500.22;;;18.98;100.00
5996;BME280;3026;53.612;7.278;2023-08-01T11:48:03;99491.59;;;18.89;100.00
5996;BME280;3026;53.612;7.278;2023-08-01T11:50:32;99494.94;;;18.91;100.00
5996;BME280;3026;53.612;7.278;2023-08-01T11:53:03;99502.63;;;18.89;100.00
5996;BME280;3026;53.612;7.278;2023-08-01T11:55:34;99495.44;;;18.88;100.00
5996;BME280;3026;53.612;7.278;2023-08-01T11:58:04;99507.56;;;18.87;100.00
5996;BME280;3026;53.612;7.278;2023-08-01T12:00:31;99514.19;;;18.86;100.00
5996;BME280;3026;53.612;7.278;2023-08-01T12:03:08;99504.81;;;18.87;100.00
5996;BME280;3026;53.612;7.278;2023-08-01T12:05:39;99521.81;;;19.01;100.00
5996;BME280;3026;53.612;7.278;2023-08-01T12:08:14;99526.53;;;19.00;100.00
5996;BME280;3026;53.612;7.278;2023-08-01T12:10:42;99519.31;;;18.99;100.00
5996;BME280;3026;53.612;7.278;2023-08-01T12:13:19;99521.09;;;19.10;100.00
5996;BME280;3026;53.612;7.278;2023-08-01T12:15:47;99533.28;;;19.14;100.00
5996;BME280;3026;53.612;7.278;2023-08-01T12:18:20;99535.47;;;19.12;100.00
5996;BME280;3026;53.612;7.278;2023-08-01T12:20:50;99543.28;;;19.20;100.00
5996;BME280;3026;53.612;7.278;2023-08-01T12:23:19;99543.63;;;19.24;100.00
5996;BME280;3026;53.612;7.278;2023-08-01T12:25:48;99532.00;;;19.22;100.00
5996;BME280;3026;53.612;7.278;2023-08-01T12:28:16;99540.28;;;19.22;100.00
5996;BME280;3026;53.612;7.278;2023-08-01T12:30:43;99542.16;;;19.16;100.00
5996;BME280;3026;53.612;7.278;2023-08-01T12:33:10;99559.81;;;19.15;100.00
5996;BME280;3026;53.612;7.278;2023-08-01T12:35:39;99561.94;;;19.08;100.00
5996;BME280;3026;53.612;7.278;2023-08-01T12:38:09;99560.75;;;18.99;100.00
5996;BME280;3026;53.612;7.278;2023-08-01T12:40:39;99560.91;;;18.87;100.00
5996;BME280;3026;53.612;7.278;2023-08-01T12:43:06;99560.00;;;18.82;100.00
5996;BME280;3026;53.612;7.278;2023-08-01T12:45:33;99557.41;;;18.75;100.00
5996;BME280;3026;53.612;7.278;2023-08-01T12:48:03;99559.28;;;18.70;100.00
5996;BME280;3026;53.612;7.278;2023-08-01T12:50:30;99567.13;;;18.78;100.00
5996;BME280;3026;53.612;7.278;2023-08-01T12:53:00;99563.88;;;18.86;100.00
5996;BME280;3026;53.612;7.278;2023-08-01T12:55:29;99574.44;;;18.89;100.00
5996;BME280;3026;53.612;7.278;2023-08-01T12:57:58;99571.06;;;18.87;100.00
5996;BME280;3026;53.612;7.278;2023-08-01T13:00:25;99571.56;;;18.79;100.00
5996;BME280;3026;53.612;7.278;2023-08-01T13:02:53;99573.97;;;18.75;100.00
5996;BME280;3026;53.612;7.278;2023-08-01T13:05:23;99576.50;;;18.77;100.00
5996;BME280;3026;53.612;7.278;2023-08-01T13:07:50;99569.41;;;18.86;100.00
5996;BME280;3026;53.612;7.278;2023-08-01T13:10:18;99577.25;;;18.94;100.00
5996;BME280;3026;53.612;7.278;2023-08-01T13:12:45;99590.09;;;19.05;100.00
5996;BME280;3026;53.612;7.278;2023-08-01T13:15:14;99575.72;;;19.03;100.00
5996;BME280;3026;53.612;7.278;2023-08-01T13:17:41;99577.38;;;19.04;100.00
5996;BME280;3026;53.612;7.278;2023-08-01T13:20:10;99581.22;;;19.03;100.00
5996;BME280;3026;53.612;7.278;2023-08-01T13:22:37;99583.03;;;19.14;100.00
5996;BME280;3026;53.612;7.278;2023-08-01T13:25:05;99599.38;;;19.21;100.00
5996;BME280;3026;53.612;7.278;2023-08-01T13:27:34;99596.25;;;19.12;100.00
5996;BME280;3026;53.612;7.278;2023-08-01T13:30:01;99592.41;;;19.13;100.00
5996;BME280;3026;53.612;7.278;2023-08-01T13:32:30;99598.53;;;19.20;100.00
5996;BME280;3026;53.612;7.278;2023-08-01T13:34:57;99598.66;;;19.31;100.00
5996;BME280;3026;53.612;7.278;2023-08-01T13:37:24;99590.44;;;19.36;100.00